Time;durP1;ratioP1;P1;durP2;ratioP2;P2;SDS_P1;SDS_P2;PMS_P1;PMS_P2;Temp;Humidity;BMP_temperature;BMP_pressure;BME280_temperature;BME280_humidity;BME280_pressure;Samples;Min_cycle;Max_cycle;Signal;HPM_P1;HPM_P2
2022/07/03 00:00:54;;;;;;;3.05;0.90;;;;;;;17.38;88.80;101758.59;5011923;28;20049;-37
2022/07/03 00:03:23;;;;;;;2.85;1.30;;;;;;;17.39;88.53;101755.41;5011451;28;20049;-29
2022/07/03 00:05:51;;;;;;;2.03;1.10;;;;;;;17.41;88.42;101755.09;5011954;28;20050;-32
2022/07/03 00:08:18;;;;;;;2.28;1.23;;;;;;;17.43;88.31;101764.91;5011879;28;20044;-32
2022/07/03 00:10:46;;;;;;;2.75;1.23;;;;;;;17.44;88.56;101765.72;5012052;28;20054;-37
2022/07/03 00:13:14;;;;;;;2.95;1.15;;;;;;;17.45;88.75;101756.94;5013802;28;20554;-30
2022/07/03 00:15:43;;;;;;;2.30;1.10;;;;;;;17.46;89.04;101761.44;5013633;28;21023;-29
2022/07/03 00:18:11;;;;;;;2.10;1.00;;;;;;;17.47;89.05;101754.63;5013370;28;20120;-32
2022/07/03 00:20:45;;;;;;;2.13;1.00;;;;;;;17.47;89.16;101754.63;5013322;28;20133;-30
2022/07/03 00:23:17;;;;;;;3.70;1.60;;;;;;;17.46;89.38;101752.97;5013296;28;20058;-32
2022/07/03 00:25:45;;;;;;;3.13;0.98;;;;;;;17.44;89.58;101752.47;5012875;28;20171;-34
2022/07/03 00:28:13;;;;;;;2.33;1.13;;;;;;;17.45;89.61;101756.13;5013030;28;20045;-36
2022/07/03 00:30:42;;;;;;;2.15;1.15;;;;;;;17.45;89.75;101751.31;5012739;28;20050;-35
2022/07/03 00:33:10;;;;;;;2.58;1.38;;;;;;;17.44;90.17;101758.09;5012579;28;20139;-33
2022/07/03 00:35:43;;;;;;;2.65;1.15;;;;;;;17.44;90.63;101762.91;5013241;28;20084;-29
2022/07/03 00:38:11;;;;;;;2.67;1.33;;;;;;;17.41;90.86;101755.91;5013848;28;20064;-30
2022/07/03 00:40:39;;;;;;;2.63;1.30;;;;;;;17.39;91.38;101763.03;5012858;28;20117;-30
2022/07/03 00:43:10;;;;;;;2.72;1.20;;;;;;;17.36;92.01;101770.19;5013453;28;20068;-28
2022/07/03 00:45:43;;;;;;;2.95;1.38;;;;;;;17.35;92.36;101756.41;5012288;28;20046;-28
2022/07/03 00:48:13;;;;;;;2.50;1.00;;;;;;;17.34;92.56;101754.75;5003707;28;20054;-33
2022/07/03 00:50:48;;;;;;;3.63;1.10;;;;;;;17.35;92.41;101760.06;5013008;28;20064;-31
2022/07/03 00:53:26;;;;;;;2.17;0.80;;;;;;;17.35;92.70;101756.41;5001897;28;20046;-28
2022/07/03 00:55:56;;;;;;;2.35;0.60;;;;;;;17.38;92.68;101752.94;5012721;28;20132;-36
2022/07/03 00:58:24;;;;;;;1.90;0.55;;;;;;;17.42;91.86;101749.13;5013116;28;20483;-31
2022/07/03 01:00:54;;;;;;;2.30;0.68;;;;;;;17.47;91.09;101751.81;5012204;28;20104;-29
2022/07/03 01:03:27;;;;;;;1.10;0.52;;;;;;;17.52;90.55;101751.69;5012851;28;20042;-30
2022/07/03 01:06:01;;;;;;;2.25;0.60;;;;;;;17.54;90.40;101745.72;5012763;28;20205;-29
2022/07/03 01:08:43;;;;;;;1.52;0.43;;;;;;;17.54;90.11;101743.72;5012296;28;20050;-28
2022/07/03 01:11:21;;;;;;;1.85;0.50;;;;;;;17.54;90.60;101725.97;5012860;28;20058;-29
2022/07/03 01:14:03;;;;;;;2.90;0.50;;;;;;;17.54;91.16;101738.09;5011419;28;20049;-34
2022/07/03 01:16:35;;;;;;;2.28;0.52;;;;;;;17.54;91.97;101731.59;5012648;28;20041;-30
2022/07/03 01:19:15;;;;;;;2.15;0.60;;;;;;;17.57;92.52;101733.78;5012597;28;20495;-28
2022/07/03 01:22:17;;;;;;;1.77;0.60;;;;;;;17.56;93.12;101741.41;5011902;28;20447;-32
2022/07/03 01:24:57;;;;;;;1.60;0.40;;;;;;;17.53;93.79;101739.22;5005761;28;20050;-30
2022/07/03 01:27:34;;;;;;;2.45;0.50;;;;;;;17.52;93.89;101733.91;5012151;28;20050;-31
2022/07/03 01:30:05;;;;;;;2.38;0.50;;;;;;;17.48;93.87;101742.19;5012829;28;20140;-35
2022/07/03 01:32:37;;;;;;;3.22;0.60;;;;;;;17.45;94.24;101734.38;5011909;28;20514;-34
2022/07/03 01:35:07;;;;;;;1.60;0.47;;;;;;;17.45;94.42;101734.38;5011813;28;20129;-30
2022/07/03 01:37:37;;;;;;;1.92;0.60;;;;;;;17.44;95.47;101731.88;5012186;28;20120;-28
2022/07/03 01:40:07;;;;;;;1.67;0.50;;;;;;;17.44;95.53;101729.03;5012280;28;20052;-31
2022/07/03 01:42:40;;;;;;;2.20;0.50;;;;;;;17.41;95.83;101739.00;5011290;28;20045;-29
2022/07/03 01:45:10;;;;;;;2.35;0.60;;;;;;;17.38;96.67;101736.00;5012365;28;20124;-35
2022/07/03 01:47:41;;;;;;;3.15;0.60;;;;;;;17.37;96.85;101717.41;5011815;28;20046;-29
2022/07/03 01:50:12;;;;;;;1.70;0.60;;;;;;;17.32;97.18;101712.75;5009957;28;20104;-30
2022/07/03 01:52:42;;;;;;;2.67;0.68;;;;;;;17.31;97.41;101707.41;5011423;28;20061;-34
2022/07/03 01:55:15;;;;;;;2.47;0.50;;;;;;;17.29;97.90;101724.66;5011152;28;20076;-28
2022/07/03 01:57:46;;;;;;;5.60;0.85;;;;;;;17.29;98.69;101721.00;5011041;28;20046;-31
2022/07/03 02:00:17;;;;;;;2.15;0.65;;;;;;;17.27;99.17;101721.34;5012270;28;20384;-30
2022/07/03 02:02:53;;;;;;;1.50;0.57;;;;;;;17.27;99.25;101720.50;5010839;28;20056;-29
2022/07/03 02:05:30;;;;;;;3.30;0.60;;;;;;;17.25;99.56;101714.34;5009623;28;20053;-29
2022/07/03 02:08:04;;;;;;;3.10;0.60;;;;;;;17.23;99.97;101706.19;5011910;28;20092;-30
2022/07/03 02:10:35;;;;;;;2.10;0.50;;;;;;;17.22;99.98;101708.19;5011632;28;20042;-38
2022/07/03 02:13:12;;;;;;;4.05;0.80;;;;;;;17.20;100.00;101710.50;5011641;28;20042;-28
2022/07/03 02:15:43;;;;;;;1.98;0.60;;;;;;;17.20;100.00;101704.03;5010300;28;20069;-28
2022/07/03 02:18:22;;;;;;;3.42;0.85;;;;;;;17.22;100.00;101701.72;5010682;28;20403;-28
2022/07/03 02:21:01;;;;;;;3.20;0.60;;;;;;;17.23;100.00;101706.19;5009189;28;20049;-30
2022/07/03 02:23:31;;;;;;;4.63;0.75;;;;;;;17.22;100.00;101713.00;5011469;28;20045;-33
2022/07/03 02:26:04;;;;;;;2.35;0.70;;;;;;;17.22;100.00;101696.06;5011036;28;20554;-29
2022/07/03 02:28:51;;;;;;;4.85;0.80;;;;;;;17.20;100.00;101695.56;5011613;28;20068;-30
2022/07/03 02:31:22;;;;;;;2.65;0.60;;;;;;;17.17;100.00;101701.88;5009476;28;20042;-32
2022/07/03 02:33:56;;;;;;;3.60;0.70;;;;;;;17.16;100.00;101703.03;5011257;28;20060;-32
2022/07/03 02:36:27;;;;;;;2.03;0.50;;;;;;;17.11;100.00;101695.53;5011778;28;20049;-33
2022/07/03 02:38:58;;;;;;;3.28;0.60;;;;;;;17.10;100.00;101701.50;5010593;28;20495;-28
2022/07/03 02:41:38;;;;;;;2.03;0.70;;;;;;;17.07;100.00;101699.31;4997415;28;20073;-29
2022/07/03 02:44:18;;;;;;;2.92;0.80;;;;;;;17.05;100.00;101704.44;5011226;28;20132;-31
2022/07/03 02:46:55;;;;;;;1.75;0.50;;;;;;;17.01;100.00;101706.22;5008546;28;20159;-29
2022/07/03 02:49:42;;;;;;;3.95;0.70;;;;;;;16.98;100.00;101701.25;5011311;28;20506;-28
2022/07/03 02:52:18;;;;;;;3.75;0.73;;;;;;;16.95;100.00;101699.91;5010588;28;20132;-28
2022/07/03 02:54:47;;;;;;;2.03;0.40;;;;;;;16.94;100.00;101705.88;5010983;28;20044;-31
2022/07/03 02:57:18;;;;;;;3.58;0.60;;;;;;;16.92;100.00;101700.56;5011629;28;20128;-32
2022/07/03 02:59:54;;;;;;;3.53;0.52;;;;;;;16.92;100.00;101697.75;5010902;28;20040;-36
2022/07/03 03:02:39;;;;;;;4.85;0.75;;;;;;;16.94;100.00;101697.41;5011284;28;20566;-30
2022/07/03 03:05:13;;;;;;;2.83;0.70;;;;;;;16.91;100.00;101698.88;5010940;28;20046;-28
2022/07/03 03:07:58;;;;;;;5.00;1.08;;;;;;;16.93;100.00;101701.38;5010759;28;20132;-37
2022/07/03 03:10:25;;;;;;;4.15;0.80;;;;;;;16.90;100.00;101700.03;5011207;28;20124;-29
2022/07/03 03:13:03;;;;;;;3.78;0.70;;;;;;;16.94;100.00;101694.59;5000367;28;20042;-35
2022/07/03 03:15:33;;;;;;;4.35;0.80;;;;;;;16.92;100.00;101699.72;5010723;28;20121;-34
2022/07/03 03:18:04;;;;;;;3.40;0.75;;;;;;;16.92;100.00;101702.53;5011362;28;20056;-31
2022/07/03 03:20:34;;;;;;;3.88;0.82;;;;;;;16.91;100.00;101698.06;5009805;28;20080;-29
2022/07/03 03:23:17;;;;;;;3.30;0.60;;;;;;;16.91;100.00;101692.41;5011151;28;20038;-28
2022/07/03 03:25:45;;;;;;;2.03;0.60;;;;;;;16.87;100.00;101701.50;5010932;28;20050;-31
2022/07/03 03:28:14;;;;;;;4.97;1.00;;;;;;;16.84;100.00;101685.25;5010199;28;20133;-29
2022/07/03 03:30:43;;;;;;;6.53;1.00;;;;;;;16.84;100.00;101690.03;5009963;28;20054;-33
2022/07/03 03:33:13;;;;;;;4.00;0.73;;;;;;;16.82;100.00;101698.81;5007942;28;20042;-29
2022/07/03 03:35:41;;;;;;;3.42;0.70;;;;;;;16.80;100.00;101701.13;5011125;28;20034;-32
2022/07/03 03:38:09;;;;;;;3.13;0.70;;;;;;;16.80;100.00;101697.47;5014591;28;20730;-29
2022/07/03 03:40:36;;;;;;;2.88;0.60;;;;;;;16.79;100.00;101702.28;5014552;28;20045;-36
2022/07/03 03:43:05;;;;;;;4.05;0.90;;;;;;;16.78;100.00;101697.81;5013768;28;20042;-32
2022/07/03 03:45:33;;;;;;;5.63;1.17;;;;;;;16.78;100.00;101691.34;5014506;28;20034;-32
2022/07/03 03:48:03;;;;;;;5.10;1.17;;;;;;;16.79;100.00;101690.16;5014415;28;20056;-29
2022/07/03 03:50:30;;;;;;;4.35;1.00;;;;;;;16.77;100.00;101696.16;5013668;28;20058;-28
2022/07/03 03:53:00;;;;;;;5.45;1.13;;;;;;;16.77;100.00;101696.16;5014188;28;20050;-35
2022/07/03 03:55:28;;;;;;;5.03;1.23;;;;;;;16.77;100.00;101695.31;5013758;28;20041;-36
2022/07/03 03:57:56;;;;;;;4.40;1.00;;;;;;;16.76;100.00;101694.47;5014065;28;20050;-31
2022/07/03 04:00:24;;;;;;;3.55;1.13;;;;;;;16.75;100.00;101704.09;5014317;28;20056;-30
2022/07/03 04:02:52;;;;;;;4.00;1.02;;;;;;;16.75;100.00;101708.91;5013073;28;20045;-28
2022/07/03 04:05:21;;;;;;;4.82;1.33;;;;;;;16.76;100.00;101707.75;5014203;28;20057;-28
2022/07/03 04:07:49;;;;;;;5.15;0.95;;;;;;;16.76;100.00;101708.59;5013709;28;20046;-30
2022/07/03 04:10:17;;;;;;;4.68;1.23;;;;;;;16.77;100.00;101712.22;5013431;28;20064;-34
2022/07/03 04:12:45;;;;;;;3.40;1.10;;;;;;;16.77;100.00;101709.41;5012587;28;20050;-28
2022/07/03 04:15:13;;;;;;;3.97;1.00;;;;;;;16.77;100.00;101698.13;5013887;28;20121;-32
2022/07/03 04:17:40;;;;;;;3.50;0.80;;;;;;;16.77;100.00;101701.78;5012568;28;20045;-28
2022/07/03 04:20:10;;;;;;;5.07;1.10;;;;;;;16.77;100.00;101703.78;5002756;28;20072;-29
2022/07/03 04:22:39;;;;;;;4.90;1.08;;;;;;;16.76;100.00;101697.31;5013615;28;20112;-33
2022/07/03 04:25:07;;;;;;;5.53;1.25;;;;;;;16.77;100.00;101700.97;5013121;28;20042;-32
2022/07/03 04:27:35;;;;;;;3.70;0.90;;;;;;;16.77;100.00;101701.78;5013229;28;20076;-32
2022/07/03 04:30:23;;;;;;;6.90;1.20;;;;;;;16.77;100.00;101698.13;5012938;28;20147;-30
2022/07/03 04:32:50;;;;;;;6.75;1.38;;;;;;;16.77;100.00;101701.78;5013181;28;20133;-33
2022/07/03 04:35:18;;;;;;;7.93;1.70;;;;;;;16.78;100.00;101705.44;5013586;28;20077;-34
2022/07/03 04:37:48;;;;;;;7.43;1.10;;;;;;;16.77;100.00;101710.25;5012595;28;20049;-30
2022/07/03 04:40:16;;;;;;;5.30;0.98;;;;;;;16.77;100.00;101712.22;5012779;28;20048;-32
2022/07/03 04:42:44;;;;;;;8.00;1.10;;;;;;;16.79;100.00;101709.91;5013285;28;20133;-33
2022/07/03 04:45:12;;;;;;;5.63;1.05;;;;;;;16.80;100.00;101711.56;5010810;28;20495;-28
2022/07/03 04:47:40;;;;;;;5.82;1.20;;;;;;;16.83;100.00;101705.28;5012617;28;20049;-30
2022/07/03 04:50:08;;;;;;;6.05;1.35;;;;;;;16.85;100.00;101714.25;5013169;28;20053;-29
2022/07/03 04:52:36;;;;;;;7.93;1.52;;;;;;;16.90;100.00;101707.66;5012728;28;20060;-29
2022/07/03 04:55:07;;;;;;;4.60;1.27;;;;;;;16.91;100.00;101710.16;5009474;28;20050;-29
2022/07/03 04:57:35;;;;;;;4.55;0.98;;;;;;;16.95;100.00;101707.53;5013303;28;20088;-35
2022/07/03 05:00:04;;;;;;;6.03;1.10;;;;;;;16.99;100.00;101705.72;5011709;28;20052;-31
2022/07/03 05:02:32;;;;;;;5.85;1.30;;;;;;;17.02;100.00;101708.72;5010598;28;20791;-29
2022/07/03 05:05:00;;;;;;;8.73;1.35;;;;;;;17.06;100.00;101706.09;5011772;28;20045;-29
2022/07/03 05:07:28;;;;;;;6.45;1.17;;;;;;;17.11;100.00;101705.97;5011407;28;20054;-37
2022/07/03 05:09:55;;;;;;;7.05;1.45;;;;;;;17.12;100.00;101710.47;5011483;28;20061;-28
2022/07/03 05:12:25;;;;;;;6.43;1.13;;;;;;;17.16;100.00;101712.31;5011593;28;20418;-33
2022/07/03 05:14:52;;;;;;;7.28;1.45;;;;;;;17.20;100.00;101706.84;5009949;28;20133;-32
2022/07/03 05:17:20;;;;;;;7.55;1.50;;;;;;;17.24;100.00;101705.03;5011924;28;20412;-29
2022/07/03 05:20:23;;;;;;;8.70;1.42;;;;;;;17.29;100.00;101704.91;5010640;28;20052;-29
2022/07/03 05:22:36;;;;;;;5.38;1.50;;;;;;;17.31;100.00;101711.06;5011742;28;20060;-31
2022/07/03 05:25:04;;;;;;;8.75;1.40;;;;;;;17.33;100.00;101714.41;5011000;28;20060;-29
2022/07/03 05:27:36;;;;;;;6.10;1.10;;;;;;;17.37;100.00;101718.25;5010783;28;20060;-31
2022/07/03 05:30:05;;;;;;;5.32;1.20;;;;;;;17.42;100.00;101722.91;5011092;28;20034;-31
2022/07/03 05:32:32;;;;;;;6.85;1.50;;;;;;;17.46;100.00;101715.44;4999600;28;20499;-29
2022/07/03 05:35:00;;;;;;;9.23;1.33;;;;;;;17.53;100.00;101727.13;5010391;28;20038;-33
2022/07/03 05:37:28;;;;;;;6.43;1.58;;;;;;;17.56;100.00;101724.47;5011549;28;20046;-29
2022/07/03 05:39:56;;;;;;;6.97;1.10;;;;;;;17.61;100.00;101722.66;5010873;28;20065;-34
2022/07/03 05:42:24;;;;;;;6.47;1.27;;;;;;;17.67;100.00;101727.88;5010799;28;20046;-37
2022/07/03 05:44:54;;;;;;;6.30;1.27;;;;;;;17.73;100.00;101722.91;5011005;28;20056;-33
2022/07/03 05:47:22;;;;;;;5.55;1.35;;;;;;;17.77;100.00;101726.75;5011016;28;20427;-30
2022/07/03 05:49:49;;;;;;;8.25;1.50;;;;;;;17.83;100.00;101728.25;5009942;28;20042;-29
2022/07/03 05:52:18;;;;;;;5.82;1.27;;;;;;;17.96;100.00;101734.94;5011375;28;20856;-29
2022/07/03 05:54:46;;;;;;;8.45;1.45;;;;;;;18.08;100.00;101735.97;5010758;28;20076;-28
2022/07/03 05:57:14;;;;;;;4.88;1.25;;;;;;;18.13;100.00;101733.00;5011130;28;20126;-29
2022/07/03 05:59:42;;;;;;;5.88;1.63;;;;;;;18.17;100.00;101727.53;5010467;28;20558;-29
2022/07/03 06:02:11;;;;;;;9.32;1.60;;;;;;;18.24;100.00;101736.31;5009582;28;20074;-29
2022/07/03 06:04:39;;;;;;;5.65;1.35;;;;;;;18.26;100.00;101731.19;5010630;28;20076;-29
2022/07/03 06:07:07;;;;;;;6.70;1.38;;;;;;;18.35;100.00;101734.03;5010877;28;20136;-29
2022/07/03 06:09:35;;;;;;;7.30;1.40;;;;;;;18.40;100.00;101742.31;5010262;28;20084;-30
2022/07/03 06:12:03;;;;;;;7.63;1.35;;;;;;;18.43;100.00;101738.84;5010704;28;20125;-30
2022/07/03 06:14:31;;;;;;;7.70;2.03;;;;;;;18.50;100.00;101739.19;5009272;28;20054;-28
2022/07/03 06:16:59;;;;;;;7.18;1.50;;;;;;;18.58;100.00;101739.19;5009473;28;20052;-29
2022/07/03 06:19:28;;;;;;;9.70;1.73;;;;;;;18.67;100.00;101738.41;5011122;28;20491;-29
2022/07/03 06:21:56;;;;;;;7.93;1.30;;;;;;;18.80;100.00;101745.88;5005520;28;20045;-30
2022/07/03 06:24:24;;;;;;;7.10;1.45;;;;;;;18.92;100.00;101743.22;5010224;28;20046;-30
2022/07/03 06:26:52;;;;;;;5.82;1.33;;;;;;;18.99;100.00;101749.16;5009923;28;20415;-33
2022/07/03 06:29:20;;;;;;;5.65;1.40;;;;;;;19.06;100.00;101751.50;5009780;28;20564;-36
2022/07/03 06:31:48;;;;;;;5.85;1.40;;;;;;;19.16;100.00;101754.00;5008655;28;20145;-29
2022/07/03 06:34:16;;;;;;;7.15;1.80;;;;;;;19.30;100.00;101754.63;5010690;28;20503;-29
2022/07/03 06:36:45;;;;;;;5.93;1.45;;;;;;;19.49;100.00;101763.56;5010309;28;20125;-32
2022/07/03 06:39:13;;;;;;;3.58;1.25;;;;;;;19.76;100.00;101758.69;5008580;28;20050;-31
2022/07/03 06:41:43;;;;;;;5.68;1.20;;;;;;;19.97;100.00;101750.25;5010557;28;20060;-30
2022/07/03 06:44:11;;;;;;;5.50;1.10;;;;;;;20.13;100.00;101751.31;5009024;28;20054;-31
2022/07/03 06:46:39;;;;;;;5.22;1.20;;;;;;;20.32;100.00;101745.19;5010686;28;20889;-30
2022/07/03 06:49:07;;;;;;;7.40;1.10;;;;;;;20.74;100.00;101755.41;5010254;28;20078;-30
2022/07/03 06:51:35;;;;;;;5.57;1.13;;;;;;;21.23;100.00;101747.13;5005319;28;20058;-30
2022/07/03 06:54:05;;;;;;;5.50;1.05;;;;;;;21.85;100.00;101760.28;5006375;28;20054;-29
2022/07/03 06:56:32;;;;;;;4.60;0.98;;;;;;;22.39;100.00;101758.03;5010113;28;20046;-36
2022/07/03 06:59:00;;;;;;;5.60;1.00;;;;;;;22.71;100.00;101766.75;5024389;28;20073;-34
2022/07/03 07:01:28;;;;;;;3.83;0.93;;;;;;;22.73;100.00;101770.88;5009832;28;20124;-42
2022/07/03 07:03:56;;;;;;;4.18;0.90;;;;;;;22.88;100.00;101767.31;5008179;28;20551;-35
2022/07/03 07:06:24;;;;;;;3.65;0.95;;;;;;;22.98;98.64;101772.47;5009921;28;20056;-36
2022/07/03 07:08:52;;;;;;;2.63;0.68;;;;;;;23.11;96.71;101778.16;5010843;28;20037;-30
2022/07/03 07:11:21;;;;;;;2.45;0.70;;;;;;;23.25;95.28;101765.13;5012692;28;20066;-30
2022/07/03 07:13:49;;;;;;;1.70;0.60;;;;;;;23.73;92.69;101771.78;5013374;28;20053;-35
2022/07/03 07:16:17;;;;;;;1.98;0.70;;;;;;;24.23;89.39;101776.72;5012687;28;20567;-31
2022/07/03 07:18:45;;;;;;;2.55;0.68;;;;;;;24.68;84.39;101776.19;5014459;28;20061;-30
2022/07/03 07:21:13;;;;;;;3.85;0.70;;;;;;;25.06;82.19;101769.69;5014282;28;20142;-31
2022/07/03 07:23:41;;;;;;;2.40;0.70;;;;;;;25.64;78.99;101778.22;5014542;28;20073;-37
2022/07/03 07:26:09;;;;;;;2.17;0.68;;;;;;;26.29;75.83;101783.88;5015286;28;20051;-35
2022/07/03 07:28:38;;;;;;;3.08;0.70;;;;;;;26.80;71.30;101782.56;5013971;28;20170;-30
2022/07/03 07:31:06;;;;;;;2.38;0.57;;;;;;;27.18;68.90;101779.41;5010044;28;20070;-30
2022/07/03 07:33:34;;;;;;;2.30;0.60;;;;;;;27.55;65.95;101790.91;5011368;28;20064;-31
2022/07/03 07:36:02;;;;;;;1.90;0.50;;;;;;;27.85;63.38;101787.13;5011205;28;20050;-37
2022/07/03 07:38:29;;;;;;;2.47;0.65;;;;;;;28.05;61.96;101792.25;5013108;28;20172;-31
2022/07/03 07:40:57;;;;;;;2.30;0.70;;;;;;;28.48;60.11;101788.94;5013577;28;20052;-36
2022/07/03 07:43:25;;;;;;;2.47;0.80;;;;;;;28.90;58.75;101789.22;5014485;28;20042;-31
2022/07/03 07:45:54;;;;;;;2.70;0.60;;;;;;;29.23;56.38;101793.88;5014390;28;20083;-33
2022/07/03 07:48:22;;;;;;;2.17;0.50;;;;;;;29.44;55.18;101787.41;5013672;28;20470;-32
2022/07/03 07:50:51;;;;;;;2.25;0.68;;;;;;;29.63;53.60;101789.91;5013778;28;20057;-29
2022/07/03 07:53:19;;;;;;;2.67;0.63;;;;;;;29.75;52.96;101783.78;5014695;28;20144;-30
2022/07/03 07:55:47;;;;;;;3.17;0.80;;;;;;;30.05;52.94;101788.34;5013200;28;20042;-32
2022/07/03 07:58:16;;;;;;;2.28;0.70;;;;;;;30.50;50.89;101792.44;5014286;28;20042;-30
2022/07/03 08:06:12;;;;;;;2.05;0.40;;;;;;;30.92;47.53;101794.44;5013943;28;20114;-30
2022/07/03 08:08:40;;;;;;;2.00;0.52;;;;;;;31.28;46.17;101798.00;5013772;28;20044;-30
2022/07/03 08:11:08;;;;;;;1.15;0.38;;;;;;;31.57;44.58;101803.66;5013650;28;20061;-30
2022/07/03 08:13:36;;;;;;;1.65;0.45;;;;;;;31.87;43.20;101812.53;5013847;28;20041;-31
2022/07/03 08:16:04;;;;;;;1.25;0.47;;;;;;;31.90;43.14;101814.56;5012949;28;20046;-31
2022/07/03 08:18:33;;;;;;;1.67;0.50;;;;;;;32.12;41.92;101816.06;5014479;28;20392;-39
2022/07/03 08:21:01;;;;;;;2.05;0.60;;;;;;;32.42;41.27;101817.47;5013320;28;20056;-30
2022/07/03 08:23:29;;;;;;;1.60;0.40;;;;;;;32.71;41.06;101815.13;5013225;28;20145;-32
2022/07/03 08:25:57;;;;;;;2.88;0.60;;;;;;;32.80;40.23;101818.34;5013333;28;20468;-34
2022/07/03 08:28:25;;;;;;;1.38;0.47;;;;;;;32.56;40.56;101813.63;5002914;28;20048;-30
2022/07/03 08:30:53;;;;;;;1.75;0.50;;;;;;;32.40;40.56;101820.78;5012848;28;20142;-37
2022/07/03 08:33:21;;;;;;;1.90;0.40;;;;;;;32.30;40.95;101812.22;5013680;28;20510;-30
2022/07/03 08:35:50;;;;;;;1.67;0.52;;;;;;;32.11;40.61;101804.94;5013336;28;20072;-36
2022/07/03 08:38:18;;;;;;;1.77;0.45;;;;;;;31.84;41.84;101813.38;5012578;28;20042;-35
2022/07/03 08:40:51;;;;;;;2.08;0.60;;;;;;;31.45;42.60;101814.41;5013367;28;20073;-32
2022/07/03 08:43:20;;;;;;;1.33;0.38;;;;;;;31.19;43.16;101817.81;5013571;28;20054;-36
2022/07/03 08:45:55;;;;;;;1.58;0.30;;;;;;;30.83;43.09;101832.31;5012800;28;20446;-33
2022/07/03 08:48:23;;;;;;;2.08;0.60;;;;;;;30.21;44.26;101829.06;5013204;28;20402;-39
2022/07/03 08:50:54;;;;;;;1.60;0.40;;;;;;;29.65;44.70;101826.91;5012509;28;20134;-39
2022/07/03 08:53:24;;;;;;;0.90;0.40;;;;;;;29.30;45.62;101825.53;5013376;28;20058;-37
2022/07/03 08:55:55;;;;;;;1.48;0.40;;;;;;;29.17;45.58;101832.06;5013345;28;20042;-40
2022/07/03 08:58:24;;;;;;;1.85;0.30;;;;;;;28.94;45.87;101830.28;5010920;28;20405;-30
2022/07/03 09:00:52;;;;;;;1.65;0.55;;;;;;;28.75;46.67;101830.56;5013343;28;20042;-32
2022/07/03 09:03:23;;;;;;;1.65;0.50;;;;;;;28.58;47.11;101839.88;5008993;28;20578;-40
2022/07/03 09:05:53;;;;;;;2.15;0.50;;;;;;;28.43;47.69;101834.00;5012658;28;20038;-31
2022/07/03 09:08:21;;;;;;;3.22;0.60;;;;;;;28.12;48.04;101837.41;5012952;28;20076;-32
2022/07/03 09:10:50;;;;;;;1.60;0.50;;;;;;;27.86;48.98;101843.31;5013220;28;20150;-38
2022/07/03 09:13:17;;;;;;;2.33;0.60;;;;;;;27.65;49.73;101841.84;5011868;28;20129;-31
2022/07/03 09:15:45;;;;;;;1.30;0.40;;;;;;;27.43;50.44;101837.03;5012890;28;20052;-36
2022/07/03 09:18:13;;;;;;;1.77;0.60;;;;;;;27.24;51.46;101840.09;5012216;28;20124;-30
2022/07/03 09:20:43;;;;;;;1.10;0.40;;;;;;;27.19;52.18;101828.97;5012320;28;20046;-30
2022/07/03 09:23:17;;;;;;;1.20;0.40;;;;;;;27.28;51.98;101829.50;5011832;28;20104;-35
2022/07/03 09:25:56;;;;;;;1.85;0.40;;;;;;;27.28;51.92;101833.19;5012636;28;20084;-30
2022/07/03 09:28:25;;;;;;;2.53;0.52;;;;;;;27.29;52.50;101837.72;5012335;28;20056;-30
2022/07/03 09:31:00;;;;;;;1.58;0.40;;;;;;;27.27;52.45;101837.28;5012833;28;20056;-33
2022/07/03 09:33:28;;;;;;;2.03;0.50;;;;;;;27.28;53.08;101838.91;5011062;28;20047;-31
2022/07/03 09:35:56;;;;;;;1.40;0.50;;;;;;;27.37;53.34;101842.31;5012787;28;20486;-31
2022/07/03 09:38:26;;;;;;;2.20;0.50;;;;;;;27.38;52.05;101843.13;5012064;28;20137;-31
2022/07/03 09:40:57;;;;;;;3.03;0.60;;;;;;;27.11;52.67;101845.25;5020772;28;20460;-39
2022/07/03 09:43:26;;;;;;;1.45;0.50;;;;;;;26.90;53.22;101847.78;5012276;28;20402;-31
2022/07/03 09:45:56;;;;;;;1.80;0.50;;;;;;;26.96;52.74;101852.84;5012613;28;20056;-31
2022/07/03 09:48:29;;;;;;;1.33;0.40;;;;;;;27.18;51.40;101847.41;5011258;28;20129;-34
2022/07/03 09:51:16;;;;;;;2.60;0.50;;;;;;;27.09;51.14;101844.81;5012413;28;20133;-32
2022/07/03 09:53:47;;;;;;;1.27;0.40;;;;;;;27.01;52.16;101843.88;5011558;28;20045;-30
2022/07/03 09:56:25;;;;;;;1.48;0.50;;;;;;;26.94;51.56;101842.94;5001740;28;20046;-31
2022/07/03 09:59:08;;;;;;;0.77;0.32;;;;;;;26.64;51.39;101849.44;5011013;28;20038;-31
2022/07/03 10:01:37;;;;;;;1.38;0.45;;;;;;;26.33;52.52;101846.91;5001120;28;20500;-29
2022/07/03 10:04:16;;;;;;;1.38;0.50;;;;;;;26.08;52.98;101850.13;5011188;28;20053;-39
2022/07/03 10:06:55;;;;;;;1.73;0.50;;;;;;;25.86;53.59;101853.78;5001840;28;20070;-38
2022/07/03 10:09:27;;;;;;;1.90;0.50;;;;;;;25.82;55.83;101857.78;5010877;28;20061;-30
2022/07/03 10:11:56;;;;;;;1.48;0.50;;;;;;;26.12;55.99;101846.50;5001605;28;20060;-36
2022/07/03 10:14:25;;;;;;;1.35;0.40;;;;;;;26.37;55.46;101853.50;5011040;28;20391;-37
2022/07/03 10:16:55;;;;;;;1.25;0.40;;;;;;;26.65;55.22;101848.22;5011055;28;20100;-30
2022/07/03 10:19:26;;;;;;;1.83;0.50;;;;;;;26.73;53.75;101849.19;5011480;28;20045;-36
2022/07/03 10:21:55;;;;;;;1.50;0.50;;;;;;;26.82;53.55;101863.19;5011971;28;20062;-33
2022/07/03 10:24:27;;;;;;;1.35;0.40;;;;;;;26.90;53.97;101859.25;5010636;28;20072;-36
2022/07/03 10:26:55;;;;;;;;;;;;;;;26.90;53.80;101860.06;5008565;28;20056;-40
2022/07/03 10:29:26;;;;;;;1.80;0.50;;;;;;;27.00;53.98;101856.53;5011006;28;20639;-36
2022/07/03 10:31:57;;;;;;;2.05;0.45;;;;;;;27.30;53.91;101856.56;5010741;28;20046;-29
2022/07/03 10:34:27;;;;;;;1.98;0.57;;;;;;;27.39;52.44;101861.97;5011648;28;20046;-34
2022/07/03 10:37:00;;;;;;;1.52;0.70;;;;;;;27.21;53.03;101866.66;5010698;28;20088;-34
2022/07/03 10:39:44;;;;;;;1.95;0.60;;;;;;;27.24;53.47;101860.16;5011376;28;20069;-31
2022/07/03 10:45:11;;;;;;;1.45;0.50;;;;;;;28.27;51.80;101865.06;5010782;28;20060;-30
2022/07/03 10:47:41;;;;;;;2.95;0.65;;;;;;;28.74;49.46;101857.63;5015537;28;20050;-31
2022/07/03 10:50:11;;;;;;;1.70;0.47;;;;;;;29.04;49.93;101852.50;5013974;28;20088;-38
2022/07/03 10:52:40;;;;;;;1.65;0.55;;;;;;;29.41;47.94;101845.72;5014668;28;20543;-39
2022/07/03 10:55:10;;;;;;;1.90;0.60;;;;;;;29.01;47.32;101844.69;5015380;28;20090;-32
2022/07/03 10:57:40;;;;;;;1.10;0.45;;;;;;;28.68;48.21;101851.44;5013853;28;20054;-30
2022/07/03 11:00:14;;;;;;;1.17;0.45;;;;;;;28.45;48.81;101854.53;5015284;28;20128;-39
2022/07/03 11:02:44;;;;;;;1.02;0.50;;;;;;;28.20;48.93;101859.25;5015227;28;20060;-33
2022/07/03 11:05:17;;;;;;;1.60;0.60;;;;;;;28.02;49.14;101861.09;5014452;28;20136;-34
2022/07/03 11:08:04;;;;;;;1.70;0.50;;;;;;;27.90;49.16;101853.59;5015148;28;20046;-33
2022/07/03 11:10:40;;;;;;;1.08;0.43;;;;;;;28.00;49.57;101847.13;5015183;28;20038;-34
2022/07/03 11:13:16;;;;;;;1.63;0.50;;;;;;;28.13;49.33;101853.41;5013544;28;20085;-33
2022/07/03 11:15:46;;;;;;;1.42;0.50;;;;;;;28.46;49.37;101853.31;5015292;28;20068;-32
2022/07/03 11:18:19;;;;;;;1.30;0.40;;;;;;;28.82;48.01;101856.47;5014850;28;20049;-30
2022/07/03 11:21:23;;;;;;;1.55;0.45;;;;;;;28.88;47.32;101857.75;5014825;28;20048;-31
2022/07/03 11:24:17;;;;;;;1.30;0.52;;;;;;;28.87;46.60;101855.28;5011526;28;20104;-31
2022/07/03 11:26:46;;;;;;;2.13;0.60;;;;;;;28.66;46.87;101861.66;5013721;28;20050;-31
2022/07/03 11:29:28;;;;;;;1.35;0.57;;;;;;;28.50;47.27;101856.22;5014993;28;20129;-32
2022/07/03 11:31:55;;;;;;;1.48;0.40;;;;;;;28.58;47.98;101854.25;5014798;28;20050;-34
2022/07/03 11:34:23;;;;;;;1.33;0.40;;;;;;;28.70;47.19;101849.00;5014132;28;20093;-32
2022/07/03 11:36:51;;;;;;;2.35;0.63;;;;;;;28.81;47.05;101846.22;5003294;28;20441;-38
2022/07/03 11:39:20;;;;;;;1.27;0.40;;;;;;;28.98;46.44;101845.47;5011183;28;20042;-31
2022/07/03 11:41:50;;;;;;;1.73;0.45;;;;;;;28.88;47.56;101860.63;5014251;28;20129;-30
2022/07/03 11:44:21;;;;;;;2.80;0.60;;;;;;;28.90;47.40;101861.06;5014534;28;20124;-32
2022/07/03 11:46:51;;;;;;;1.40;0.40;;;;;;;28.61;48.20;101862.03;5013948;28;20045;-34